sensor_id;sensor_type;location;lat;lon;timestamp;P1;durP1;ratioP1;P2;durP2;ratioP2
40072;SDS011;25774;52.256;9.356;2023-11-21T00:02:14;1.87;;;1.00;;
40072;SDS011;25774;52.256;9.356;2023-11-21T00:04:40;2.20;;;0.87;;
40072;SDS011;25774;52.256;9.356;2023-11-21T00:07:06;1.38;;;0.90;;
40072;SDS011;25774;52.256;9.356;2023-11-21T00:09:31;1.83;;;0.83;;
40072;SDS011;25774;52.256;9.356;2023-11-21T00:11:56;1.58;;;0.90;;
40072;SDS011;25774;52.256;9.356;2023-11-21T00:14:22;2.30;;;0.97;;
40072;SDS011;25774;52.256;9.356;2023-11-21T00:16:47;1.80;;;0.73;;
40072;SDS011;25774;52.256;9.356;2023-11-21T00:19:12;1.70;;;0.90;;
40072;SDS011;25774;52.256;9.356;2023-11-21T00:21:37;2.47;;;1.00;;
40072;SDS011;25774;52.256;9.356;2023-11-21T00:24:03;2.13;;;1.10;;
40072;SDS011;25774;52.256;9.356;2023-11-21T00:26:28;1.30;;;0.70;;
40072;SDS011;25774;52.256;9.356;2023-11-21T00:28:53;1.73;;;0.70;;
40072;SDS011;25774;52.256;9.356;2023-11-21T00:31:18;1.77;;;0.90;;
40072;SDS011;25774;52.256;9.356;2023-11-21T00:33:44;1.50;;;0.80;;
40072;SDS011;25774;52.256;9.356;2023-11-21T00:36:10;1.83;;;0.97;;
40072;SDS011;25774;52.256;9.356;2023-11-21T00:38:36;1.20;;;0.57;;
40072;SDS011;25774;52.256;9.356;2023-11-21T00:41:01;1.55;;;0.80;;
40072;SDS011;25774;52.256;9.356;2023-11-21T00:43:27;1.65;;;0.80;;
40072;SDS011;25774;52.256;9.356;2023-11-21T00:45:53;1.60;;;0.90;;
40072;SDS011;25774;52.256;9.356;2023-11-21T00:48:18;1.40;;;0.70;;
40072;SDS011;25774;52.256;9.356;2023-11-21T00:50:43;0.97;;;0.60;;
40072;SDS011;25774;52.256;9.356;2023-11-21T00:53:09;2.20;;;1.02;;
40072;SDS011;25774;52.256;9.356;2023-11-21T00:55:34;2.13;;;1.07;;
40072;SDS011;25774;52.256;9.356;2023-11-21T00:57:59;2.63;;;1.40;;
40072;SDS011;25774;52.256;9.356;2023-11-21T01:00:25;2.63;;;1.40;;
40072;SDS011;25774;52.256;9.356;2023-11-21T01:02:50;3.07;;;1.50;;
40072;SDS011;25774;52.256;9.356;2023-11-21T01:05:16;2.13;;;1.27;;
40072;SDS011;25774;52.256;9.356;2023-11-21T01:07:41;2.70;;;1.50;;
40072;SDS011;25774;52.256;9.356;2023-11-21T01:10:06;2.43;;;1.33;;
40072;SDS011;25774;52.256;9.356;2023-11-21T01:12:37;2.45;;;1.23;;
40072;SDS011;25774;52.256;9.356;2023-11-21T01:15:03;1.50;;;0.90;;
40072;SDS011;25774;52.256;9.356;2023-11-21T01:17:28;2.83;;;1.10;;
40072;SDS011;25774;52.256;9.356;2023-11-21T01:19:54;2.17;;;1.20;;
40072;SDS011;25774;52.256;9.356;2023-11-21T01:22:20;2.10;;;1.20;;
40072;SDS011;25774;52.256;9.356;2023-11-21T01:24:50;2.08;;;1.10;;
40072;SDS011;25774;52.256;9.356;2023-11-21T01:27:16;2.70;;;1.60;;
40072;SDS011;25774;52.256;9.356;2023-11-21T01:29:42;2.97;;;1.60;;
40072;SDS011;25774;52.256;9.356;2023-11-21T01:32:07;1.97;;;1.00;;
40072;SDS011;25774;52.256;9.356;2023-11-21T01:34:33;2.58;;;1.33;;
40072;SDS011;25774;52.256;9.356;2023-11-21T01:36:58;3.30;;;1.67;;
40072;SDS011;25774;52.256;9.356;2023-11-21T01:39:23;2.20;;;1.10;;
40072;SDS011;25774;52.256;9.356;2023-11-21T01:41:49;1.97;;;1.10;;
40072;SDS011;25774;52.256;9.356;2023-11-21T01:44:14;2.90;;;1.60;;
40072;SDS011;25774;52.256;9.356;2023-11-21T01:46:40;2.57;;;1.23;;
40072;SDS011;25774;52.256;9.356;2023-11-21T01:49:06;2.58;;;1.40;;
40072;SDS011;25774;52.256;9.356;2023-11-21T01:51:32;2.20;;;1.10;;
40072;SDS011;25774;52.256;9.356;2023-11-21T01:53:58;2.28;;;1.13;;
40072;SDS011;25774;52.256;9.356;2023-11-21T01:56:24;1.77;;;1.02;;
40072;SDS011;25774;52.256;9.356;2023-11-21T01:58:50;2.20;;;1.23;;
40072;SDS011;25774;52.256;9.356;2023-11-21T02:01:16;2.30;;;1.50;;
40072;SDS011;25774;52.256;9.356;2023-11-21T02:03:43;2.63;;;1.33;;
40072;SDS011;25774;52.256;9.356;2023-11-21T02:06:08;2.53;;;1.20;;
40072;SDS011;25774;52.256;9.356;2023-11-21T02:08:33;3.57;;;1.47;;
40072;SDS011;25774;52.256;9.356;2023-11-21T02:10:59;4.20;;;1.63;;
40072;SDS011;25774;52.256;9.356;2023-11-21T02:13:24;5.37;;;2.13;;
40072;SDS011;25774;52.256;9.356;2023-11-21T02:15:49;6.77;;;2.13;;
40072;SDS011;25774;52.256;9.356;2023-11-21T02:18:17;4.60;;;2.45;;
40072;SDS011;25774;52.256;9.356;2023-11-21T02:20:42;4.33;;;2.10;;
40072;SDS011;25774;52.256;9.356;2023-11-21T02:23:08;5.47;;;2.00;;
40072;SDS011;25774;52.256;9.356;2023-11-21T02:25:33;7.60;;;2.80;;
40072;SDS011;25774;52.256;9.356;2023-11-21T02:27:59;7.68;;;2.63;;
40072;SDS011;25774;52.256;9.356;2023-11-21T02:30:26;4.65;;;1.70;;
40072;SDS011;25774;52.256;9.356;2023-11-21T02:32:52;5.50;;;2.03;;
40072;SDS011;25774;52.256;9.356;2023-11-21T02:35:18;5.20;;;2.47;;
40072;SDS011;25774;52.256;9.356;2023-11-21T02:37:46;4.63;;;2.28;;
40072;SDS011;25774;52.256;9.356;2023-11-21T02:40:11;4.00;;;1.97;;
40072;SDS011;25774;52.256;9.356;2023-11-21T02:42:44;3.78;;;2.13;;
40072;SDS011;25774;52.256;9.356;2023-11-21T02:45:09;4.45;;;1.88;;
40072;SDS011;25774;52.256;9.356;2023-11-21T02:47:37;3.83;;;1.92;;
40072;SDS011;25774;52.256;9.356;2023-11-21T02:50:03;4.87;;;2.63;;
40072;SDS011;25774;52.256;9.356;2023-11-21T02:52:28;6.13;;;2.22;;
40072;SDS011;25774;52.256;9.356;2023-11-21T02:54:53;5.07;;;2.80;;
40072;SDS011;25774;52.256;9.356;2023-11-21T02:57:20;5.10;;;2.17;;
40072;SDS011;25774;52.256;9.356;2023-11-21T02:59:45;7.70;;;3.95;;
40072;SDS011;25774;52.256;9.356;2023-11-21T03:02:10;7.77;;;4.07;;
40072;SDS011;25774;52.256;9.356;2023-11-21T03:04:35;6.40;;;3.67;;
40072;SDS011;25774;52.256;9.356;2023-11-21T03:07:00;8.20;;;4.00;;
40072;SDS011;25774;52.256;9.356;2023-11-21T03:09:26;10.27;;;4.83;;
40072;SDS011;25774;52.256;9.356;2023-11-21T03:11:52;6.50;;;3.55;;
40072;SDS011;25774;52.256;9.356;2023-11-21T03:14:17;8.88;;;4.38;;
40072;SDS011;25774;52.256;9.356;2023-11-21T03:16:43;13.00;;;5.80;;
40072;SDS011;25774;52.256;9.356;2023-11-21T03:19:10;9.45;;;4.97;;
40072;SDS011;25774;52.256;9.356;2023-11-21T03:21:35;9.97;;;5.80;;
40072;SDS011;25774;52.256;9.356;2023-11-21T03:24:01;11.13;;;5.63;;
40072;SDS011;25774;52.256;9.356;2023-11-21T03:26:26;11.57;;;5.70;;
40072;SDS011;25774;52.256;9.356;2023-11-21T03:28:52;14.17;;;6.40;;
40072;SDS011;25774;52.256;9.356;2023-11-21T03:31:18;10.27;;;4.80;;
40072;SDS011;25774;52.256;9.356;2023-11-21T03:33:44;10.95;;;5.93;;
40072;SDS011;25774;52.256;9.356;2023-11-21T03:36:10;10.85;;;5.95;;
40072;SDS011;25774;52.256;9.356;2023-11-21T03:38:36;17.00;;;6.88;;
40072;SDS011;25774;52.256;9.356;2023-11-21T03:41:01;13.03;;;7.03;;
40072;SDS011;25774;52.256;9.356;2023-11-21T03:43:26;14.87;;;7.30;;
40072;SDS011;25774;52.256;9.356;2023-11-21T03:45:52;14.67;;;7.20;;
40072;SDS011;25774;52.256;9.356;2023-11-21T03:48:18;12.30;;;6.70;;
40072;SDS011;25774;52.256;9.356;2023-11-21T03:50:45;11.32;;;5.80;;
40072;SDS011;25774;52.256;9.356;2023-11-21T03:53:12;12.02;;;5.80;;
40072;SDS011;25774;52.256;9.356;2023-11-21T03:55:37;9.67;;;5.27;;
40072;SDS011;25774;52.256;9.356;2023-11-21T03:58:02;9.87;;;4.60;;
40072;SDS011;25774;52.256;9.356;2023-11-21T04:00:28;8.93;;;4.63;;
40072;SDS011;25774;52.256;9.356;2023-11-21T04:02:53;9.97;;;4.53;;
40072;SDS011;25774;52.256;9.356;2023-11-21T04:05:19;9.43;;;4.97;;
40072;SDS011;25774;52.256;9.356;2023-11-21T04:07:44;11.27;;;5.40;;
40072;SDS011;25774;52.256;9.356;2023-11-21T04:10:10;9.80;;;5.30;;
40072;SDS011;25774;52.256;9.356;2023-11-21T04:12:43;9.27;;;5.20;;
40072;SDS011;25774;52.256;9.356;2023-11-21T04:15:09;12.40;;;5.60;;
40072;SDS011;25774;52.256;9.356;2023-11-21T04:17:35;9.50;;;4.90;;
40072;SDS011;25774;52.256;9.356;2023-11-21T04:20:02;10.77;;;4.88;;
40072;SDS011;25774;52.256;9.356;2023-11-21T04:22:27;10.07;;;5.03;;
40072;SDS011;25774;52.256;9.356;2023-11-21T04:24:52;13.97;;;5.63;;
40072;SDS011;25774;52.256;9.356;2023-11-21T04:27:17;12.50;;;5.67;;
40072;SDS011;25774;52.256;9.356;2023-11-21T04:29:43;9.80;;;4.97;;
40072;SDS011;25774;52.256;9.356;2023-11-21T04:32:09;10.07;;;5.13;;
40072;SDS011;25774;52.256;9.356;2023-11-21T04:34:34;8.45;;;4.97;;
40072;SDS011;25774;52.256;9.356;2023-11-21T04:36:59;9.03;;;4.97;;
40072;SDS011;25774;52.256;9.356;2023-11-21T04:39:26;8.35;;;4.47;;
40072;SDS011;25774;52.256;9.356;2023-11-21T04:41:51;8.67;;;4.30;;
40072;SDS011;25774;52.256;9.356;2023-11-21T04:44:17;8.70;;;3.93;;
40072;SDS011;25774;52.256;9.356;2023-11-21T04:46:43;6.70;;;3.92;;
40072;SDS011;25774;52.256;9.356;2023-11-21T04:49:10;8.23;;;4.43;;
40072;SDS011;25774;52.256;9.356;2023-11-21T04:51:36;8.38;;;4.97;;
40072;SDS011;25774;52.256;9.356;2023-11-21T04:54:01;9.13;;;4.73;;
40072;SDS011;25774;52.256;9.356;2023-11-21T04:56:26;9.33;;;5.03;;
40072;SDS011;25774;52.256;9.356;2023-11-21T04:58:52;9.73;;;5.53;;
40072;SDS011;25774;52.256;9.356;2023-11-21T05:01:18;7.85;;;4.55;;
40072;SDS011;25774;52.256;9.356;2023-11-21T05:03:43;7.90;;;4.17;;
40072;SDS011;25774;52.256;9.356;2023-11-21T05:06:11;8.23;;;4.83;;
40072;SDS011;25774;52.256;9.356;2023-11-21T05:08:37;6.75;;;4.20;;
40072;SDS011;25774;52.256;9.356;2023-11-21T05:11:02;6.75;;;3.65;;
40072;SDS011;25774;52.256;9.356;2023-11-21T05:13:28;8.47;;;4.47;;
40072;SDS011;25774;52.256;9.356;2023-11-21T05:15:56;9.37;;;4.17;;
40072;SDS011;25774;52.256;9.356;2023-11-21T05:18:24;7.13;;;3.20;;
40072;SDS011;25774;52.256;9.356;2023-11-21T05:20:54;7.57;;;3.35;;
40072;SDS011;25774;52.256;9.356;2023-11-21T05:23:20;5.57;;;2.70;;
40072;SDS011;25774;52.256;9.356;2023-11-21T05:25:45;6.23;;;3.17;;
40072;SDS011;25774;52.256;9.356;2023-11-21T05:28:11;5.25;;;2.60;;
40072;SDS011;25774;52.256;9.356;2023-11-21T05:30:37;3.87;;;2.03;;
40072;SDS011;25774;52.256;9.356;2023-11-21T05:33:04;5.15;;;2.70;;
40072;SDS011;25774;52.256;9.356;2023-11-21T05:35:29;6.27;;;2.63;;
40072;SDS011;25774;52.256;9.356;2023-11-21T05:37:54;3.57;;;1.90;;
40072;SDS011;25774;52.256;9.356;2023-11-21T05:40:24;4.07;;;2.00;;
40072;SDS011;25774;52.256;9.356;2023-11-21T05:42:51;3.08;;;1.65;;
40072;SDS011;25774;52.256;9.356;2023-11-21T05:45:17;3.87;;;2.10;;
40072;SDS011;25774;52.256;9.356;2023-11-21T05:47:44;3.15;;;1.33;;
40072;SDS011;25774;52.256;9.356;2023-11-21T05:50:11;3.47;;;1.90;;
40072;SDS011;25774;52.256;9.356;2023-11-21T05:52:40;2.95;;;1.45;;
40072;SDS011;25774;52.256;9.356;2023-11-21T05:55:05;3.63;;;1.48;;
40072;SDS011;25774;52.256;9.356;2023-11-21T05:57:35;2.97;;;1.50;;
40072;SDS011;25774;52.256;9.356;2023-11-21T06:00:06;3.38;;;1.65;;
40072;SDS011;25774;52.256;9.356;2023-11-21T06:05:50;3.53;;;1.90;;
40072;SDS011;25774;52.256;9.356;2023-11-21T06:08:15;4.33;;;2.10;;
40072;SDS011;25774;52.256;9.356;2023-11-21T06:13:06;6.47;;;3.20;;
40072;SDS011;25774;52.256;9.356;2023-11-21T06:15:48;5.70;;;3.10;;
40072;SDS011;25774;52.256;9.356;2023-11-21T06:18:13;7.20;;;3.40;;
40072;SDS011;25774;52.256;9.356;2023-11-21T06:20:40;7.20;;;3.28;;
40072;SDS011;25774;52.256;9.356;2023-11-21T06:23:05;9.70;;;3.80;;
40072;SDS011;25774;52.256;9.356;2023-11-21T06:25:30;7.03;;;4.07;;
40072;SDS011;25774;52.256;9.356;2023-11-21T06:27:58;10.75;;;4.60;;
40072;SDS011;25774;52.256;9.356;2023-11-21T06:30:23;9.50;;;4.23;;
40072;SDS011;25774;52.256;9.356;2023-11-21T06:32:50;12.37;;;4.80;;
40072;SDS011;25774;52.256;9.356;2023-11-21T06:35:16;9.63;;;5.25;;
40072;SDS011;25774;52.256;9.356;2023-11-21T06:37:41;10.27;;;5.03;;
40072;SDS011;25774;52.256;9.356;2023-11-21T06:40:06;9.57;;;4.40;;
40072;SDS011;25774;52.256;9.356;2023-11-21T06:42:32;10.07;;;5.00;;
40072;SDS011;25774;52.256;9.356;2023-11-21T06:44:58;9.48;;;4.80;;
40072;SDS011;25774;52.256;9.356;2023-11-21T06:47:24;9.93;;;5.55;;
40072;SDS011;25774;52.256;9.356;2023-11-21T06:49:55;10.75;;;5.32;;
40072;SDS011;25774;52.256;9.356;2023-11-21T06:54:47;9.73;;;4.73;;
40072;SDS011;25774;52.256;9.356;2023-11-21T06:59:37;9.73;;;4.73;;
40072;SDS011;25774;52.256;9.356;2023-11-21T07:02:03;13.03;;;5.90;;
40072;SDS011;25774;52.256;9.356;2023-11-21T07:04:29;10.32;;;5.60;;
40072;SDS011;25774;52.256;9.356;2023-11-21T07:06:55;10.27;;;5.63;;
40072;SDS011;25774;52.256;9.356;2023-11-21T07:09:21;9.55;;;4.60;;
40072;SDS011;25774;52.256;9.356;2023-11-21T07:11:50;9.45;;;4.93;;
40072;SDS011;25774;52.256;9.356;2023-11-21T07:14:16;8.48;;;4.38;;
40072;SDS011;25774;52.256;9.356;2023-11-21T07:16:44;6.78;;;4.18;;
40072;SDS011;25774;52.256;9.356;2023-11-21T07:19:09;5.70;;;3.53;;
40072;SDS011;25774;52.256;9.356;2023-11-21T07:21:35;5.93;;;3.50;;
40072;SDS011;25774;52.256;9.356;2023-11-21T07:24:01;6.28;;;3.40;;
40072;SDS011;25774;52.256;9.356;2023-11-21T07:26:26;6.00;;;3.47;;
40072;SDS011;25774;52.256;9.356;2023-11-21T07:28:51;6.68;;;3.88;;
40072;SDS011;25774;52.256;9.356;2023-11-21T07:31:17;6.37;;;3.47;;
40072;SDS011;25774;52.256;9.356;2023-11-21T07:33:42;5.83;;;3.10;;
40072;SDS011;25774;52.256;9.356;2023-11-21T07:36:07;6.60;;;3.20;;
40072;SDS011;25774;52.256;9.356;2023-11-21T07:38:33;6.83;;;4.00;;
40072;SDS011;25774;52.256;9.356;2023-11-21T07:40:58;7.33;;;3.77;;
40072;SDS011;25774;52.256;9.356;2023-11-21T07:43:26;7.20;;;3.70;;
40072;SDS011;25774;52.256;9.356;2023-11-21T07:45:51;7.93;;;3.97;;
40072;SDS011;25774;52.256;9.356;2023-11-21T07:48:17;6.50;;;3.47;;
40072;SDS011;25774;52.256;9.356;2023-11-21T07:50:42;6.57;;;3.67;;
40072;SDS011;25774;52.256;9.356;2023-11-21T07:53:07;6.63;;;3.93;;
40072;SDS011;25774;52.256;9.356;2023-11-21T07:55:32;7.50;;;3.77;;
40072;SDS011;25774;52.256;9.356;2023-11-21T07:57:58;5.23;;;2.77;;
40072;SDS011;25774;52.256;9.356;2023-11-21T08:00:24;6.85;;;3.72;;
40072;SDS011;25774;52.256;9.356;2023-11-21T08:02:49;6.73;;;4.13;;
40072;SDS011;25774;52.256;9.356;2023-11-21T08:05:14;6.90;;;4.30;;
40072;SDS011;25774;52.256;9.356;2023-11-21T08:07:40;8.57;;;3.60;;
40072;SDS011;25774;52.256;9.356;2023-11-21T08:10:07;6.60;;;3.73;;
40072;SDS011;25774;52.256;9.356;2023-11-21T08:12:32;6.38;;;3.72;;
40072;SDS011;25774;52.256;9.356;2023-11-21T08:14:57;5.93;;;2.90;;
40072;SDS011;25774;52.256;9.356;2023-11-21T08:17:22;5.70;;;2.80;;
40072;SDS011;25774;52.256;9.356;2023-11-21T08:19:48;4.50;;;2.20;;
40072;SDS011;25774;52.256;9.356;2023-11-21T08:22:17;4.32;;;2.17;;
40072;SDS011;25774;52.256;9.356;2023-11-21T08:24:45;4.70;;;2.47;;
40072;SDS011;25774;52.256;9.356;2023-11-21T08:27:11;5.03;;;1.92;;
40072;SDS011;25774;52.256;9.356;2023-11-21T08:29:37;2.90;;;1.67;;
40072;SDS011;25774;52.256;9.356;2023-11-21T08:32:02;4.13;;;1.97;;
40072;SDS011;25774;52.256;9.356;2023-11-21T08:34:28;3.25;;;1.70;;
40072;SDS011;25774;52.256;9.356;2023-11-21T08:36:53;3.07;;;1.53;;
40072;SDS011;25774;52.256;9.356;2023-11-21T08:39:19;2.17;;;1.15;;
40072;SDS011;25774;52.256;9.356;2023-11-21T08:41:44;2.90;;;1.20;;
40072;SDS011;25774;52.256;9.356;2023-11-21T08:44:09;3.03;;;1.30;;
40072;SDS011;25774;52.256;9.356;2023-11-21T08:46:36;2.00;;;0.85;;
40072;SDS011;25774;52.256;9.356;2023-11-21T08:49:01;1.67;;;0.85;;
40072;SDS011;25774;52.256;9.356;2023-11-21T08:51:27;2.00;;;0.87;;
40072;SDS011;25774;52.256;9.356;2023-11-21T08:53:52;1.50;;;0.77;;
40072;SDS011;25774;52.256;9.356;2023-11-21T08:56:18;1.83;;;0.88;;
40072;SDS011;25774;52.256;9.356;2023-11-21T08:58:45;2.38;;;1.20;;
40072;SDS011;25774;52.256;9.356;2023-11-21T09:01:10;3.23;;;1.67;;
40072;SDS011;25774;52.256;9.356;2023-11-21T09:03:36;3.50;;;1.88;;
40072;SDS011;25774;52.256;9.356;2023-11-21T09:06:02;4.88;;;2.53;;
40072;SDS011;25774;52.256;9.356;2023-11-21T09:08:28;4.95;;;2.63;;
40072;SDS011;25774;52.256;9.356;2023-11-21T09:10:55;4.63;;;2.45;;
40072;SDS011;25774;52.256;9.356;2023-11-21T09:13:21;3.33;;;1.93;;
40072;SDS011;25774;52.256;9.356;2023-11-21T09:15:47;3.45;;;1.70;;
40072;SDS011;25774;52.256;9.356;2023-11-21T09:18:14;4.82;;;2.50;;
40072;SDS011;25774;52.256;9.356;2023-11-21T09:20:40;4.40;;;2.20;;
40072;SDS011;25774;52.256;9.356;2023-11-21T09:23:06;3.17;;;1.43;;
40072;SDS011;25774;52.256;9.356;2023-11-21T09:25:32;2.53;;;1.40;;
40072;SDS011;25774;52.256;9.356;2023-11-21T09:27:58;2.53;;;1.10;;
40072;SDS011;25774;52.256;9.356;2023-11-21T09:30:24;3.60;;;1.95;;
40072;SDS011;25774;52.256;9.356;2023-11-21T09:32:50;3.53;;;2.13;;
40072;SDS011;25774;52.256;9.356;2023-11-21T09:35:15;3.35;;;2.03;;
40072;SDS011;25774;52.256;9.356;2023-11-21T09:37:41;3.63;;;2.25;;
40072;SDS011;25774;52.256;9.356;2023-11-21T09:40:07;4.83;;;2.83;;
40072;SDS011;25774;52.256;9.356;2023-11-21T09:42:47;5.57;;;2.97;;
40072;SDS011;25774;52.256;9.356;2023-11-21T09:45:34;5.72;;;3.85;;
40072;SDS011;25774;52.256;9.356;2023-11-21T09:48:00;5.63;;;3.50;;
40072;SDS011;25774;52.256;9.356;2023-11-21T09:50:25;9.67;;;4.90;;
40072;SDS011;25774;52.256;9.356;2023-11-21T09:55:17;7.50;;;4.40;;
40072;SDS011;25774;52.256;9.356;2023-11-21T09:57:45;6.32;;;3.63;;
40072;SDS011;25774;52.256;9.356;2023-11-21T10:00:10;7.18;;;4.15;;
40072;SDS011;25774;52.256;9.356;2023-11-21T10:02:37;6.05;;;3.88;;
40072;SDS011;25774;52.256;9.356;2023-11-21T10:07:28;4.90;;;2.50;;
40072;SDS011;25774;52.256;9.356;2023-11-21T10:09:56;5.72;;;3.08;;
40072;SDS011;25774;52.256;9.356;2023-11-21T10:12:23;6.07;;;2.53;;
40072;SDS011;25774;52.256;9.356;2023-11-21T10:14:49;4.03;;;2.28;;
40072;SDS011;25774;52.256;9.356;2023-11-21T10:17:14;4.75;;;2.50;;
40072;SDS011;25774;52.256;9.356;2023-11-21T10:19:43;4.03;;;2.22;;
40072;SDS011;25774;52.256;9.356;2023-11-21T10:22:11;4.28;;;2.05;;
40072;SDS011;25774;52.256;9.356;2023-11-21T10:24:36;6.23;;;3.57;;
40072;SDS011;25774;52.256;9.356;2023-11-21T10:27:03;5.28;;;2.65;;
40072;SDS011;25774;52.256;9.356;2023-11-21T10:29:29;4.47;;;2.55;;
40072;SDS011;25774;52.256;9.356;2023-11-21T10:31:55;3.73;;;2.53;;
40072;SDS011;25774;52.256;9.356;2023-11-21T10:34:22;4.57;;;2.20;;
40072;SDS011;25774;52.256;9.356;2023-11-21T10:36:48;5.57;;;2.70;;
40072;SDS011;25774;52.256;9.356;2023-11-21T10:39:16;3.77;;;2.23;;
40072;SDS011;25774;52.256;9.356;2023-11-21T10:41:46;4.32;;;2.40;;
40072;SDS011;25774;52.256;9.356;2023-11-21T10:44:13;4.10;;;2.20;;
40072;SDS011;25774;52.256;9.356;2023-11-21T10:46:39;3.05;;;1.75;;
40072;SDS011;25774;52.256;9.356;2023-11-21T10:49:05;3.50;;;1.85;;
40072;SDS011;25774;52.256;9.356;2023-11-21T10:51:31;3.55;;;2.10;;
40072;SDS011;25774;52.256;9.356;2023-11-21T10:53:56;4.03;;;2.20;;
40072;SDS011;25774;52.256;9.356;2023-11-21T10:56:23;3.70;;;2.27;;
40072;SDS011;25774;52.256;9.356;2023-11-21T10:58:49;3.53;;;1.80;;
40072;SDS011;25774;52.256;9.356;2023-11-21T11:01:15;6.68;;;3.72;;
40072;SDS011;25774;52.256;9.356;2023-11-21T11:03:42;5.60;;;3.30;;
40072;SDS011;25774;52.256;9.356;2023-11-21T11:06:08;6.03;;;3.70;;
40072;SDS011;25774;52.256;9.356;2023-11-21T11:08:36;4.90;;;2.50;;
40072;SDS011;25774;52.256;9.356;2023-11-21T11:11:03;4.13;;;2.53;;
40072;SDS011;25774;52.256;9.356;2023-11-21T11:15:57;5.27;;;2.80;;
40072;SDS011;25774;52.256;9.356;2023-11-21T11:18:24;5.20;;;3.08;;
40072;SDS011;25774;52.256;9.356;2023-11-21T11:20:51;5.23;;;2.63;;
40072;SDS011;25774;52.256;9.356;2023-11-21T11:28:48;5.00;;;3.10;;
40072;SDS011;25774;52.256;9.356;2023-11-21T11:31:29;5.88;;;3.28;;
40072;SDS011;25774;52.256;9.356;2023-11-21T11:41:53;5.35;;;3.33;;
40072;SDS011;25774;52.256;9.356;2023-11-21T11:47:20;5.32;;;3.03;;
40072;SDS011;25774;52.256;9.356;2023-11-21T11:52:54;4.45;;;2.33;;
40072;SDS011;25774;52.256;9.356;2023-11-21T11:55:23;4.95;;;2.78;;
40072;SDS011;25774;52.256;9.356;2023-11-21T11:57:49;5.20;;;3.00;;
40072;SDS011;25774;52.256;9.356;2023-11-21T12:02:48;6.95;;;4.22;;
40072;SDS011;25774;52.256;9.356;2023-11-21T12:05:14;6.50;;;4.25;;
40072;SDS011;25774;52.256;9.356;2023-11-21T12:10:05;5.40;;;3.23;;
40072;SDS011;25774;52.256;9.356;2023-11-21T12:12:30;6.50;;;4.07;;
40072;SDS011;25774;52.256;9.356;2023-11-21T12:14:57;9.38;;;4.75;;
40072;SDS011;25774;52.256;9.356;2023-11-21T12:17:23;10.52;;;4.20;;
40072;SDS011;25774;52.256;9.356;2023-11-21T12:19:49;6.53;;;4.30;;
40072;SDS011;25774;52.256;9.356;2023-11-21T12:22:17;6.50;;;4.10;;
40072;SDS011;25774;52.256;9.356;2023-11-21T12:24:43;7.90;;;4.30;;
40072;SDS011;25774;52.256;9.356;2023-11-21T12:27:08;6.87;;;4.23;;
40072;SDS011;25774;52.256;9.356;2023-11-21T12:29:34;5.70;;;3.47;;
40072;SDS011;25774;52.256;9.356;2023-11-21T12:31:59;5.17;;;3.10;;
40072;SDS011;25774;52.256;9.356;2023-11-21T12:34:24;5.50;;;3.70;;
40072;SDS011;25774;52.256;9.356;2023-11-21T12:36:49;5.97;;;3.67;;
40072;SDS011;25774;52.256;9.356;2023-11-21T12:39:15;5.47;;;3.83;;
40072;SDS011;25774;52.256;9.356;2023-11-21T12:41:40;5.77;;;3.57;;
40072;SDS011;25774;52.256;9.356;2023-11-21T12:44:09;6.97;;;4.10;;
40072;SDS011;25774;52.256;9.356;2023-11-21T12:46:36;7.05;;;4.05;;
40072;SDS011;25774;52.256;9.356;2023-11-21T12:49:01;8.90;;;4.73;;
40072;SDS011;25774;52.256;9.356;2023-11-21T12:51:26;7.23;;;4.47;;
40072;SDS011;25774;52.256;9.356;2023-11-21T12:53:53;6.50;;;4.17;;
40072;SDS011;25774;52.256;9.356;2023-11-21T12:58:45;5.88;;;3.33;;
40072;SDS011;25774;52.256;9.356;2023-11-21T13:01:12;5.30;;;3.35;;
40072;SDS011;25774;52.256;9.356;2023-11-21T13:03:41;7.18;;;3.90;;
40072;SDS011;25774;52.256;9.356;2023-11-21T13:06:10;6.50;;;3.40;;
40072;SDS011;25774;52.256;9.356;2023-11-21T13:08:36;5.90;;;3.05;;
40072;SDS011;25774;52.256;9.356;2023-11-21T13:11:04;4.10;;;1.90;;
40072;SDS011;25774;52.256;9.356;2023-11-21T13:13:31;5.63;;;3.08;;
40072;SDS011;25774;52.256;9.356;2023-11-21T13:16:00;4.95;;;3.08;;
40072;SDS011;25774;52.256;9.356;2023-11-21T13:18:31;6.60;;;3.80;;
40072;SDS011;25774;52.256;9.356;2023-11-21T13:20:57;7.30;;;3.78;;
40072;SDS011;25774;52.256;9.356;2023-11-21T13:23:23;5.93;;;3.25;;
40072;SDS011;25774;52.256;9.356;2023-11-21T13:25:49;5.47;;;3.30;;
40072;SDS011;25774;52.256;9.356;2023-11-21T13:28:15;6.22;;;4.00;;
40072;SDS011;25774;52.256;9.356;2023-11-21T13:30:40;6.73;;;4.00;;
40072;SDS011;25774;52.256;9.356;2023-11-21T13:33:06;7.27;;;4.00;;
40072;SDS011;25774;52.256;9.356;2023-11-21T13:35:36;5.53;;;3.80;;
40072;SDS011;25774;52.256;9.356;2023-11-21T13:38:07;6.80;;;3.80;;
40072;SDS011;25774;52.256;9.356;2023-11-21T13:40:34;8.10;;;3.63;;
40072;SDS011;25774;52.256;9.356;2023-11-21T13:43:05;9.20;;;4.63;;
40072;SDS011;25774;52.256;9.356;2023-11-21T13:45:30;6.57;;;3.93;;
40072;SDS011;25774;52.256;9.356;2023-11-21T13:47:56;7.03;;;4.40;;
40072;SDS011;25774;52.256;9.356;2023-11-21T13:50:25;7.65;;;5.22;;
40072;SDS011;25774;52.256;9.356;2023-11-21T13:52:55;9.07;;;5.93;;
40072;SDS011;25774;52.256;9.356;2023-11-21T13:55:20;8.87;;;6.77;;
40072;SDS011;25774;52.256;9.356;2023-11-21T13:57:49;8.70;;;6.80;;
40072;SDS011;25774;52.256;9.356;2023-11-21T14:00:17;7.90;;;5.70;;
40072;SDS011;25774;52.256;9.356;2023-11-21T14:03:01;8.27;;;5.45;;
40072;SDS011;25774;52.256;9.356;2023-11-21T14:05:31;7.40;;;4.55;;
40072;SDS011;25774;52.256;9.356;2023-11-21T14:07:58;6.53;;;4.50;;
40072;SDS011;25774;52.256;9.356;2023-11-21T14:10:31;8.98;;;4.78;;
40072;SDS011;25774;52.256;9.356;2023-11-21T14:13:09;7.25;;;4.40;;
40072;SDS011;25774;52.256;9.356;2023-11-21T14:15:38;9.40;;;4.55;;
40072;SDS011;25774;52.256;9.356;2023-11-21T14:18:08;9.07;;;4.20;;
40072;SDS011;25774;52.256;9.356;2023-11-21T14:20:39;7.13;;;4.65;;
40072;SDS011;25774;52.256;9.356;2023-11-21T14:23:05;10.05;;;5.07;;
40072;SDS011;25774;52.256;9.356;2023-11-21T14:25:34;8.93;;;5.40;;
40072;SDS011;25774;52.256;9.356;2023-11-21T14:28:00;14.95;;;9.15;;
40072;SDS011;25774;52.256;9.356;2023-11-21T14:30:25;16.02;;;8.55;;
40072;SDS011;25774;52.256;9.356;2023-11-21T14:32:52;12.30;;;8.00;;
40072;SDS011;25774;52.256;9.356;2023-11-21T14:35:17;10.60;;;7.00;;
40072;SDS011;25774;52.256;9.356;2023-11-21T14:37:43;9.97;;;5.90;;
40072;SDS011;25774;52.256;9.356;2023-11-21T14:40:08;8.20;;;4.87;;
40072;SDS011;25774;52.256;9.356;2023-11-21T14:42:34;7.93;;;4.82;;
40072;SDS011;25774;52.256;9.356;2023-11-21T14:45:03;6.63;;;4.53;;
40072;SDS011;25774;52.256;9.356;2023-11-21T14:47:32;7.15;;;4.30;;
40072;SDS011;25774;52.256;9.356;2023-11-21T14:49:57;8.05;;;3.97;;
40072;SDS011;25774;52.256;9.356;2023-11-21T14:52:24;6.00;;;4.28;;
40072;SDS011;25774;52.256;9.356;2023-11-21T14:55:02;9.60;;;4.15;;
40072;SDS011;25774;52.256;9.356;2023-11-21T14:58:07;5.45;;;3.38;;
40072;SDS011;25774;52.256;9.356;2023-11-21T15:00:37;5.72;;;3.58;;
40072;SDS011;25774;52.256;9.356;2023-11-21T15:03:10;5.82;;;3.28;;
40072;SDS011;25774;52.256;9.356;2023-11-21T15:05:40;4.40;;;2.67;;
40072;SDS011;25774;52.256;9.356;2023-11-21T15:08:05;5.27;;;3.07;;
40072;SDS011;25774;52.256;9.356;2023-11-21T15:10:45;7.00;;;4.50;;
40072;SDS011;25774;52.256;9.356;2023-11-21T15:13:18;5.78;;;3.72;;
40072;SDS011;25774;52.256;9.356;2023-11-21T15:15:44;6.03;;;3.53;;
40072;SDS011;25774;52.256;9.356;2023-11-21T15:18:09;5.30;;;3.30;;
40072;SDS011;25774;52.256;9.356;2023-11-21T15:20:37;10.10;;;5.70;;
40072;SDS011;25774;52.256;9.356;2023-11-21T15:23:03;9.75;;;5.88;;
40072;SDS011;25774;52.256;9.356;2023-11-21T15:25:30;14.45;;;8.35;;
40072;SDS011;25774;52.256;9.356;2023-11-21T15:27:55;13.87;;;7.83;;